Time;durP1;ratioP1;P1;durP2;ratioP2;P2;SDS_P1;SDS_P2;PMS_P1;PMS_P2;Temp;Humidity;BMP_temperature;BMP_pressure;BME280_temperature;BME280_humidity;BME280_pressure;Samples;Min_cycle;Max_cycle;Signal;HPM_P1;HPM_P2
2022/07/20 00:01:51;;;;;;;5.90;3.23;;;;;;;17.63;100.00;99739.50;5054748;28;20714;-80
2022/07/20 00:04:17;;;;;;;7.13;3.57;;;;;;;17.63;100.00;99742.22;5046254;28;20262;-80
2022/07/20 00:06:44;;;;;;;6.40;3.43;;;;;;;17.65;100.00;99734.63;5045934;28;20222;-80
2022/07/20 00:11:56;;;;;;;6.47;3.40;;;;;;;17.70;100.00;99732.75;5050843;28;20287;-80
2022/07/20 00:14:23;;;;;;;7.60;3.57;;;;;;;17.69;100.00;99736.53;5044728;28;20249;-80
2022/07/20 00:16:50;;;;;;;5.97;3.17;;;;;;;17.72;100.00;99737.94;5055749;28;20278;-79
2022/07/20 00:19:17;;;;;;;4.63;3.50;;;;;;;17.78;100.00;99739.56;5052104;28;20310;-80
2022/07/20 00:21:44;;;;;;;7.50;3.30;;;;;;;17.83;100.00;99736.88;5046410;28;20246;-80
2022/07/20 00:24:10;;;;;;;4.23;3.37;;;;;;;17.87;100.00;99741.50;5047193;28;20234;-79
2022/07/20 00:26:37;;;;;;;5.43;3.70;;;;;;;17.88;100.00;99739.63;5049735;28;20286;-80
2022/07/20 00:29:04;;;;;;;5.10;3.50;;;;;;;17.90;100.00;99741.00;5050604;28;20310;-79
2022/07/20 00:31:31;;;;;;;3.93;3.53;;;;;;;17.88;100.00;99745.03;5050085;28;20238;-80
2022/07/20 00:33:58;;;;;;;4.40;3.40;;;;;;;17.92;100.00;99738.81;5052302;28;20236;-79
2022/07/20 00:36:24;;;;;;;5.10;3.43;;;;;;;17.95;100.00;99741.03;5051244;28;20752;-79
2022/07/20 00:38:51;;;;;;;6.43;3.67;;;;;;;17.91;100.00;99737.22;5054438;28;20223;-80
2022/07/20 00:41:19;;;;;;;5.67;3.40;;;;;;;17.91;100.00;99730.97;5056258;28;20711;-79
2022/07/20 00:43:56;;;;;;;4.27;3.33;;;;;;;17.93;100.00;99735.03;5046763;28;20845;-80
2022/07/20 00:46:23;;;;;;;4.00;3.60;;;;;;;17.96;100.00;99736.41;5050647;28;20229;-79
2022/07/20 00:48:50;;;;;;;5.43;3.63;;;;;;;17.97;100.00;99738.84;5054272;28;20255;-79
2022/07/20 00:51:17;;;;;;;4.73;3.83;;;;;;;18.04;100.00;99746.75;5049976;28;20251;-79
2022/07/20 00:53:45;;;;;;;5.73;3.53;;;;;;;18.04;100.00;99742.13;5051581;28;20310;-79
2022/07/20 00:56:13;;;;;;;5.47;3.50;;;;;;;18.04;100.00;99741.31;5053881;28;20231;-79
2022/07/20 00:58:39;;;;;;;4.60;3.87;;;;;;;18.02;100.00;99738.06;5050827;28;20272;-80
2022/07/20 01:01:06;;;;;;;4.40;3.67;;;;;;;17.96;100.00;99731.78;5049206;28;20251;-79
2022/07/20 01:03:33;;;;;;;4.90;3.20;;;;;;;17.93;100.00;99735.03;5048345;28;20281;-79
2022/07/20 01:06:00;;;;;;;3.93;3.53;;;;;;;17.86;100.00;99734.47;5053935;28;20871;-81
2022/07/20 01:08:28;;;;;;;5.83;4.07;;;;;;;17.81;100.00;99736.34;5053159;28;20234;-79
2022/07/20 01:10:56;;;;;;;5.20;4.13;;;;;;;17.79;100.00;99730.34;5053565;28;20223;-79
2022/07/20 01:13:23;;;;;;;4.10;3.80;;;;;;;17.80;100.00;99732.81;5053203;28;20238;-81
2022/07/20 01:15:49;;;;;;;4.90;3.97;;;;;;;17.77;100.00;99727.13;5050185;28;20251;-79
2022/07/20 01:18:16;;;;;;;5.37;4.00;;;;;;;17.72;100.00;99724.38;5058610;28;20330;-80
2022/07/20 01:20:48;;;;;;;5.17;4.03;;;;;;;17.71;100.00;99728.16;5055562;28;20275;-79
2022/07/20 01:23:16;;;;;;;4.67;4.13;;;;;;;17.67;100.00;99727.88;5058298;28;20256;-79
2022/07/20 01:25:43;;;;;;;5.50;4.20;;;;;;;17.64;100.00;99733.81;5052399;28;20302;-82
2022/07/20 01:28:11;;;;;;;4.20;3.90;;;;;;;17.58;100.00;99733.00;5054565;28;20234;-83
2022/07/20 01:30:39;;;;;;;5.47;4.47;;;;;;;17.57;100.00;99727.78;5050484;28;20666;-79
2022/07/20 01:33:07;;;;;;;4.77;3.90;;;;;;;17.53;100.00;99732.94;5044421;28;20253;-80
2022/07/20 01:35:34;;;;;;;4.50;4.10;;;;;;;17.46;100.00;99728.81;5046986;28;20744;-80
2022/07/20 01:38:01;;;;;;;5.70;4.13;;;;;;;17.46;100.00;99736.94;5041101;28;20245;-77
2022/07/20 01:40:27;;;;;;;4.23;3.90;;;;;;;17.42;100.00;99723.09;5047809;28;20284;-81
2022/07/20 01:42:54;;;;;;;4.57;3.97;;;;;;;17.37;100.00;99728.47;5051128;28;20234;-80
2022/07/20 01:45:21;;;;;;;5.23;4.10;;;;;;;17.30;100.00;99718.97;5047644;28;20236;-79
2022/07/20 01:47:47;;;;;;;4.30;3.90;;;;;;;17.30;100.00;99727.09;5050397;28;20299;-79
2022/07/20 01:50:14;;;;;;;4.80;4.30;;;;;;;17.26;100.00;99728.69;5054736;28;20264;-80
2022/07/20 01:52:41;;;;;;;4.53;4.13;;;;;;;17.18;100.00;99722.66;5053773;28;20266;-80
2022/07/20 01:55:08;;;;;;;4.47;3.83;;;;;;;17.17;100.00;99731.03;5051339;28;20304;-79
2022/07/20 01:57:34;;;;;;;4.67;4.13;;;;;;;17.07;100.00;99722.88;5056454;28;20233;-80
2022/07/20 02:00:01;;;;;;;4.50;4.10;;;;;;;17.08;100.00;99733.41;5051539;28;20233;-79
2022/07/20 02:02:37;;;;;;;5.87;4.43;;;;;;;17.02;100.00;99733.66;5055464;28;20705;-80
2022/07/20 02:05:04;;;;;;;4.90;4.50;;;;;;;17.00;100.00;99727.69;5055853;28;20230;-81
2022/07/20 02:07:31;;;;;;;4.70;4.30;;;;;;;16.94;100.00;99726.00;5055529;28;20605;-82
2022/07/20 02:09:57;;;;;;;4.60;4.20;;;;;;;16.90;100.00;99731.13;5057377;28;20276;-80
2022/07/20 02:12:24;;;;;;;4.73;4.30;;;;;;;16.89;100.00;99731.41;5055890;28;20241;-80
2022/07/20 02:14:51;;;;;;;4.83;4.43;;;;;;;16.84;100.00;99728.66;5053902;28;20234;-81
2022/07/20 02:17:17;;;;;;;5.00;4.13;;;;;;;16.79;100.00;99736.72;5052820;28;20289;-81
2022/07/20 02:19:44;;;;;;;6.13;4.40;;;;;;;16.76;100.00;99729.09;5052684;28;20233;-80
2022/07/20 02:22:11;;;;;;;4.33;3.93;;;;;;;16.75;100.00;99741.81;5052883;28;20257;-80
2022/07/20 02:24:37;;;;;;;4.30;3.90;;;;;;;16.73;100.00;99731.25;5053326;28;20233;-80
2022/07/20 02:27:04;;;;;;;5.37;4.10;;;;;;;16.71;100.00;99733.38;5056593;28;20267;-80
2022/07/20 02:29:31;;;;;;;5.80;4.50;;;;;;;16.70;100.00;99731.75;5057228;28;20248;-79
2022/07/20 02:31:57;;;;;;;4.80;4.40;;;;;;;16.62;100.00;99726.81;5057813;28;20324;-83
2022/07/20 02:34:24;;;;;;;4.97;4.47;;;;;;;16.55;100.00;99726.19;5055449;28;20653;-80
2022/07/20 02:36:52;;;;;;;6.07;4.53;;;;;;;16.55;100.00;99730.78;5057731;28;20229;-80
2022/07/20 02:39:19;;;;;;;5.97;4.40;;;;;;;16.49;100.00;99727.19;5058831;28;20309;-80
2022/07/20 02:41:46;;;;;;;5.20;4.57;;;;;;;16.44;100.00;99721.75;5051077;28;20259;-80
2022/07/20 02:44:13;;;;;;;4.70;4.30;;;;;;;16.43;100.00;99724.69;5048527;28;20278;-78
2022/07/20 02:46:40;;;;;;;4.70;4.20;;;;;;;16.41;100.00;99721.44;5055662;28;20256;-80
2022/07/20 02:49:07;;;;;;;4.93;4.33;;;;;;;16.37;100.00;99720.31;5051354;28;20229;-80
2022/07/20 02:51:34;;;;;;;4.73;4.33;;;;;;;16.34;100.00;99724.34;5054825;28;20264;-80
2022/07/20 02:54:00;;;;;;;6.00;4.60;;;;;;;16.32;100.00;99720.28;5050913;28;20244;-76
2022/07/20 02:56:27;;;;;;;6.37;4.37;;;;;;;16.28;100.00;99715.34;5052078;28;20222;-80
2022/07/20 02:58:54;;;;;;;6.00;4.53;;;;;;;16.28;100.00;99714.56;5051480;28;20312;-80
2022/07/20 03:01:21;;;;;;;5.40;4.77;;;;;;;16.22;100.00;99720.97;5047722;28;20230;-80
2022/07/20 03:03:47;;;;;;;5.37;4.87;;;;;;;16.21;100.00;99722.88;5050894;28;20233;-81
2022/07/20 03:06:16;;;;;;;5.83;4.70;;;;;;;16.17;100.00;99719.03;5052477;28;20606;-80
2022/07/20 03:08:43;;;;;;;5.97;4.53;;;;;;;16.14;100.00;99733.03;5049675;28;20760;-80
2022/07/20 03:11:09;;;;;;;5.20;4.63;;;;;;;16.11;100.00;99733.56;5049330;28;20676;-82
2022/07/20 03:13:36;;;;;;;5.30;4.90;;;;;;;16.10;100.00;99729.22;5054813;28;20225;-80
2022/07/20 03:16:03;;;;;;;5.40;4.53;;;;;;;16.09;100.00;99740.28;5054192;28;20307;-79
2022/07/20 03:18:30;;;;;;;5.27;4.77;;;;;;;16.07;100.00;99737.84;5053735;28;20244;-80
2022/07/20 03:20:56;;;;;;;5.17;4.77;;;;;;;16.08;100.00;99736.78;5048515;28;20636;-80
2022/07/20 03:23:23;;;;;;;5.30;4.80;;;;;;;16.05;100.00;99729.16;5051951;28;20238;-80
2022/07/20 03:25:49;;;;;;;5.50;5.00;;;;;;;16.07;100.00;99729.72;5051813;28;20257;-79
2022/07/20 03:28:18;;;;;;;6.73;4.80;;;;;;;16.03;100.00;99734.00;5054939;28;20367;-80
2022/07/20 03:30:44;;;;;;;5.67;5.07;;;;;;;16.05;100.00;99733.78;5055132;28;20317;-79
2022/07/20 03:33:11;;;;;;;5.03;4.40;;;;;;;16.09;100.00;99734.88;5053305;28;20316;-79
2022/07/20 03:35:38;;;;;;;5.10;4.70;;;;;;;16.10;100.00;99739.22;5052377;28;20249;-78
2022/07/20 03:38:04;;;;;;;5.60;5.10;;;;;;;16.10;100.00;99750.00;5053505;28;20308;-82
2022/07/20 03:40:31;;;;;;;5.90;5.30;;;;;;;16.13;100.00;99749.53;5050503;28;20229;-79
2022/07/20 03:42:58;;;;;;;5.20;4.80;;;;;;;16.18;100.00;99755.00;5051481;28;20222;-80
2022/07/20 03:45:25;;;;;;;5.77;5.17;;;;;;;16.21;100.00;99758.00;5051365;28;20283;-80
2022/07/20 03:47:54;;;;;;;5.97;5.17;;;;;;;16.26;100.00;99744.53;5052329;28;20226;-80
2022/07/20 03:50:21;;;;;;;7.27;5.53;;;;;;;16.32;100.00;99753.53;5050952;28;20331;-81
2022/07/20 03:52:47;;;;;;;7.03;5.70;;;;;;;16.41;100.00;99751.19;5053670;28;20231;-80
2022/07/20 03:55:14;;;;;;;6.40;5.20;;;;;;;16.47;100.00;99755.59;5049585;28;20232;-79
2022/07/20 03:57:41;;;;;;;5.83;5.30;;;;;;;16.53;100.00;99759.97;5049840;28;20245;-80
2022/07/20 04:00:08;;;;;;;7.00;5.50;;;;;;;16.59;100.00;99758.97;5048307;28;20230;-80
2022/07/20 04:02:35;;;;;;;6.83;5.47;;;;;;;16.69;100.00;99753.66;5051444;28;20230;-80
2022/07/20 04:05:02;;;;;;;5.83;5.33;;;;;;;16.99;100.00;99764.75;5048352;28;20225;-80
2022/07/20 04:07:29;;;;;;;5.73;5.10;;;;;;;18.23;100.00;99757.94;5048356;28;20743;-79
2022/07/20 04:09:56;;;;;;;4.83;4.40;;;;;;;19.59;100.00;99766.22;5048304;28;20319;-80
2022/07/20 04:12:24;;;;;;;9.80;5.10;;;;;;;20.64;100.00;99775.03;5044177;28;20708;-79
2022/07/20 04:14:52;;;;;;;5.50;5.00;;;;;;;21.56;97.59;99791.47;5049705;28;20229;-79
2022/07/20 04:17:19;;;;;;;5.57;5.07;;;;;;;22.35;86.10;99812.69;5047919;28;20227;-80
2022/07/20 04:19:47;;;;;;;6.17;5.17;;;;;;;22.74;79.83;99765.22;5055383;28;20227;-80
2022/07/20 04:22:14;;;;;;;6.93;5.40;;;;;;;22.82;78.81;99767.28;5047646;28;20261;-79
2022/07/20 04:24:40;;;;;;;5.10;4.67;;;;;;;22.86;78.47;99773.00;5047996;28;20255;-79
2022/07/20 04:27:07;;;;;;;8.50;7.33;;;;;;;22.91;76.29;99772.91;5048689;28;20266;-81
2022/07/20 04:29:34;;;;;;;7.80;7.03;;;;;;;22.64;78.73;99776.28;5048699;28;20287;-80
2022/07/20 04:32:01;;;;;;;7.73;6.53;;;;;;;22.31;83.25;99776.19;5048282;28;20273;-78
2022/07/20 04:34:27;;;;;;;7.67;6.80;;;;;;;22.04;88.05;99775.97;5048445;28;20260;-79
2022/07/20 04:36:55;;;;;;;9.30;8.33;;;;;;;21.71;95.73;99780.41;5048758;28;20700;-81
2022/07/20 04:39:22;;;;;;;8.13;7.20;;;;;;;21.48;100.00;99775.75;5044289;28;20230;-81
2022/07/20 04:41:48;;;;;;;7.70;7.00;;;;;;;21.28;100.00;99782.19;5047757;28;20260;-80
2022/07/20 04:44:15;;;;;;;7.13;6.37;;;;;;;21.15;100.00;99774.69;5047731;28;20233;-80
2022/07/20 04:46:42;;;;;;;6.53;5.87;;;;;;;21.04;100.00;99779.34;5052247;28;20234;-82
2022/07/20 04:49:09;;;;;;;8.20;5.77;;;;;;;20.96;100.00;99784.59;5051028;28;20242;-80
2022/07/20 04:51:36;;;;;;;9.50;5.50;;;;;;;21.05;100.00;99782.91;5028776;28;20263;-80
2022/07/20 04:54:03;;;;;;;5.90;5.37;;;;;;;20.95;100.00;99778.34;5034965;28;20232;-81
2022/07/20 04:56:30;;;;;;;6.03;5.43;;;;;;;21.01;100.00;99782.66;5032207;28;20279;-80
2022/07/20 04:58:57;;;;;;;6.80;5.50;;;;;;;21.14;100.00;99786.66;5034501;28;20257;-81
2022/07/20 05:01:24;;;;;;;8.60;5.27;;;;;;;21.35;96.21;99788.13;5029042;28;20284;-80
2022/07/20 05:03:51;;;;;;;6.10;5.43;;;;;;;21.48;94.47;99787.47;5034924;28;20225;-80
2022/07/20 05:06:18;;;;;;;7.53;5.53;;;;;;;21.67;88.94;99792.19;5016395;28;20249;-81
2022/07/20 05:08:45;;;;;;;6.47;5.43;;;;;;;21.80;88.87;99783.31;5035614;28;20738;-81
2022/07/20 05:11:13;;;;;;;7.07;5.27;;;;;;;21.98;85.94;99790.00;5035738;28;20230;-80
2022/07/20 05:13:40;;;;;;;8.23;5.37;;;;;;;22.15;84.25;99785.69;5024263;28;20814;-81
2022/07/20 05:16:07;;;;;;;9.77;5.90;;;;;;;22.28;83.98;99781.41;5039182;28;20508;-81
2022/07/20 05:18:33;;;;;;;7.97;5.30;;;;;;;22.44;80.42;99785.59;5031526;28;20316;-80
2022/07/20 05:21:00;;;;;;;11.83;5.77;;;;;;;22.56;77.47;99785.94;5035711;28;20746;-81
2022/07/20 05:23:27;;;;;;;9.45;5.57;;;;;;;22.65;77.82;99780.63;5036550;28;20230;-81
2022/07/20 05:25:53;;;;;;;11.38;5.88;;;;;;;22.83;76.42;99774.38;5012262;28;20242;-80
2022/07/20 05:28:20;;;;;;;11.48;5.30;;;;;;;22.99;75.11;99791.34;5029845;28;20645;-81
2022/07/20 05:30:48;;;;;;;8.02;5.75;;;;;;;23.10;74.31;99784.59;5037216;28;20252;-81
2022/07/20 05:33:16;;;;;;;8.52;5.30;;;;;;;23.18;74.21;99787.50;5035584;28;20299;-81
2022/07/20 05:35:42;;;;;;;10.52;5.13;;;;;;;23.29;73.23;99788.13;5013885;28;20254;-81
2022/07/20 05:38:09;;;;;;;9.45;5.55;;;;;;;23.41;73.02;99793.94;5014440;28;20285;-80
2022/07/20 05:40:36;;;;;;;7.05;4.78;;;;;;;23.52;71.26;99786.38;5014498;28;20218;-80
2022/07/20 05:43:03;;;;;;;12.98;5.68;;;;;;;23.67;71.14;99789.66;5015966;28;20227;-81
2022/07/20 05:45:29;;;;;;;8.48;5.32;;;;;;;23.85;69.37;99792.59;5015780;28;20292;-80
2022/07/20 05:47:56;;;;;;;9.93;5.50;;;;;;;24.02;68.84;99784.63;5009258;28;20297;-81
2022/07/20 05:50:23;;;;;;;9.50;5.03;;;;;;;24.15;67.59;99786.53;5028177;28;20306;-81
2022/07/20 05:52:50;;;;;;;8.20;5.32;;;;;;;24.21;68.14;99790.84;5035263;28;20606;-81
2022/07/20 05:55:17;;;;;;;11.30;5.50;;;;;;;24.25;68.51;99786.34;5042165;28;20243;-81
2022/07/20 05:57:44;;;;;;;10.00;4.97;;;;;;;24.32;66.15;99784.00;5036893;28;20230;-80
2022/07/20 06:00:11;;;;;;;8.75;4.70;;;;;;;24.47;65.83;99791.91;5041981;28;21284;-81
2022/07/20 06:02:38;;;;;;;9.35;5.57;;;;;;;24.52;68.13;99783.56;5033947;28;20236;-80
2022/07/20 06:05:06;;;;;;;12.93;5.07;;;;;;;24.60;67.21;99789.44;5036214;28;20276;-81
2022/07/20 06:07:33;;;;;;;8.45;5.18;;;;;;;24.69;66.95;99788.38;5031220;28;20238;-80
2022/07/20 06:10:00;;;;;;;9.52;5.47;;;;;;;24.74;65.67;99782.78;5034763;28;20285;-80
2022/07/20 06:12:26;;;;;;;11.77;5.45;;;;;;;24.64;63.72;99780.28;5037482;28;20737;-81
2022/07/20 06:14:53;;;;;;;11.30;4.80;;;;;;;24.79;62.60;99781.88;5026661;28;20242;-81
2022/07/20 06:17:20;;;;;;;12.38;4.93;;;;;;;24.87;59.30;99783.91;5024726;28;20333;-80
2022/07/20 06:19:47;;;;;;;8.00;4.63;;;;;;;24.96;57.62;99785.59;5025200;28;20236;-80
2022/07/20 06:22:13;;;;;;;6.43;4.70;;;;;;;25.07;55.81;99788.91;5024786;28;20697;-80
2022/07/20 06:24:40;;;;;;;7.13;4.80;;;;;;;25.17;56.27;99783.16;5028173;28;20312;-81
2022/07/20 06:27:22;;;;;;;6.97;5.10;;;;;;;25.24;57.62;99788.22;5043419;28;20236;-80
2022/07/20 06:29:49;;;;;;;8.68;5.10;;;;;;;25.20;59.12;99782.53;5044177;28;20286;-81
2022/07/20 06:32:15;;;;;;;6.47;4.85;;;;;;;25.30;58.81;99775.97;5032620;28;20234;-80
2022/07/20 06:34:43;;;;;;;10.40;4.93;;;;;;;25.43;58.82;99775.91;5039230;28;20226;-83
2022/07/20 06:37:10;;;;;;;9.65;5.03;;;;;;;25.46;59.00;99782.72;5026915;28;20839;-80
2022/07/20 06:39:37;;;;;;;5.85;4.70;;;;;;;25.58;58.47;99774.72;5031953;28;20276;-81
2022/07/20 06:42:12;;;;;;;10.00;4.80;;;;;;;25.64;56.45;99769.91;5032851;28;20236;-80
2022/07/20 06:44:39;;;;;;;6.60;4.93;;;;;;;25.73;55.42;99770.78;5034360;28;20305;-80
2022/07/20 06:47:05;;;;;;;5.78;4.30;;;;;;;25.90;54.35;99770.03;5017814;28;20258;-81
2022/07/20 06:49:32;;;;;;;6.07;4.32;;;;;;;26.00;54.92;99770.53;5031451;28;20630;-80
2022/07/20 06:51:59;;;;;;;5.15;4.70;;;;;;;26.16;55.54;99770.94;5038132;28;20228;-81
2022/07/20 06:54:26;;;;;;;9.32;5.20;;;;;;;26.29;55.11;99768.09;5042130;28;20259;-81
2022/07/20 06:56:54;;;;;;;6.25;4.47;;;;;;;26.48;53.17;99770.53;5028680;28;20288;-81
2022/07/20 06:59:21;;;;;;;7.50;4.80;;;;;;;26.63;52.76;99761.03;5026095;28;20242;-80
2022/07/20 07:01:47;;;;;;;5.25;4.60;;;;;;;26.84;52.40;99764.72;5029767;28;20260;-80
2022/07/20 07:04:14;;;;;;;7.57;4.65;;;;;;;26.84;52.61;99753.72;5022762;28;20261;-80
2022/07/20 07:06:41;;;;;;;5.63;4.13;;;;;;;26.99;54.27;99760.72;5024060;28;20798;-80
2022/07/20 07:09:09;;;;;;;9.63;4.40;;;;;;;27.27;52.96;99758.41;5024254;28;20253;-81
2022/07/20 07:11:36;;;;;;;7.60;4.82;;;;;;;27.45;53.42;99757.22;5021799;28;20235;-80
2022/07/20 07:14:03;;;;;;;8.95;4.20;;;;;;;27.50;53.64;99754.31;5023913;28;20226;-80
2022/07/20 07:16:30;;;;;;;13.30;4.40;;;;;;;27.30;52.87;99744.78;5029105;28;20278;-81
2022/07/20 07:18:57;;;;;;;7.13;4.32;;;;;;;27.51;52.69;99755.94;5031760;28;20263;-80
2022/07/20 07:21:24;;;;;;;4.72;3.90;;;;;;;27.70;51.83;99759.13;5033705;28;20230;-79
2022/07/20 07:23:51;;;;;;;5.38;3.50;;;;;;;27.78;53.26;99752.78;5027249;28;20261;-81
2022/07/20 07:26:19;;;;;;;5.35;3.53;;;;;;;27.78;52.05;99755.53;5032016;28;20280;-80
2022/07/20 07:28:46;;;;;;;5.70;3.17;;;;;;;28.02;49.54;99747.47;5027805;28;20222;-80
2022/07/20 07:31:15;;;;;;;3.88;3.10;;;;;;;28.29;48.11;99742.63;5036140;28;20742;-80
2022/07/20 07:33:41;;;;;;;4.88;3.15;;;;;;;28.56;47.43;99744.06;5030836;28;20793;-80
2022/07/20 07:36:08;;;;;;;7.70;2.92;;;;;;;28.76;45.15;99746.84;5030885;28;20260;-80
2022/07/20 07:38:35;;;;;;;7.55;2.88;;;;;;;28.99;44.12;99743.72;5029221;28;20297;-80
2022/07/20 07:41:02;;;;;;;7.43;2.95;;;;;;;29.14;42.84;99737.59;5028906;28;20233;-80
2022/07/20 07:43:29;;;;;;;8.38;2.92;;;;;;;29.38;46.02;99737.69;5031802;28;20337;-80
2022/07/20 07:45:56;;;;;;;9.10;3.10;;;;;;;29.35;43.82;99732.81;5027354;28;20237;-80
2022/07/20 07:48:23;;;;;;;6.28;2.70;;;;;;;29.29;43.23;99731.41;5018787;28;20280;-79
2022/07/20 07:51:19;;;;;;;8.57;2.67;;;;;;;29.62;41.95;99731.41;5016455;28;20696;-80
2022/07/20 07:53:45;;;;;;;4.97;2.67;;;;;;;29.89;42.49;99727.97;5023939;28;20646;-80
2022/07/20 07:56:12;;;;;;;7.13;2.60;;;;;;;30.12;40.65;99725.56;5027582;28;21239;-80
2022/07/20 07:58:39;;;;;;;5.32;2.45;;;;;;;30.25;39.83;99724.38;5017556;28;20230;-80
2022/07/20 08:01:06;;;;;;;5.60;2.60;;;;;;;30.52;38.10;99712.59;5024547;28;20732;-80
2022/07/20 08:03:33;;;;;;;4.63;2.30;;;;;;;30.75;36.35;99712.84;5023026;28;20573;-80
2022/07/20 08:06:00;;;;;;;2.67;2.10;;;;;;;30.94;33.15;99710.25;5027899;28;20263;-82
2022/07/20 08:08:27;;;;;;;4.97;1.98;;;;;;;31.21;34.25;99710.63;5032440;28;20229;-82
2022/07/20 08:10:54;;;;;;;2.78;1.80;;;;;;;31.41;34.28;99707.59;5021865;28;20257;-81
2022/07/20 08:13:21;;;;;;;2.63;1.88;;;;;;;31.76;31.41;99707.72;5029077;28;20246;-81
2022/07/20 08:15:47;;;;;;;2.65;1.80;;;;;;;31.92;30.62;99700.16;5029886;28;20265;-81
2022/07/20 08:18:17;;;;;;;4.13;1.70;;;;;;;32.22;28.63;99697.72;5008889;28;20244;-82
2022/07/20 08:20:44;;;;;;;2.63;1.70;;;;;;;32.35;27.86;99709.47;5030121;28;20257;-82
2022/07/20 08:23:11;;;;;;;1.88;1.77;;;;;;;32.47;27.41;99701.06;5028704;28;20265;-82
2022/07/20 08:25:37;;;;;;;2.70;1.73;;;;;;;32.54;27.46;99695.63;5032712;28;20254;-81
2022/07/20 08:28:18;;;;;;;4.53;1.63;;;;;;;32.69;26.56;99692.03;5031953;28;20674;-81
2022/07/20 08:30:46;;;;;;;2.13;1.60;;;;;;;32.67;27.06;99702.69;5029206;28;20230;-81
2022/07/20 08:33:25;;;;;;;5.30;1.50;;;;;;;32.86;26.39;99696.31;5008690;28;20648;-81
2022/07/20 08:35:51;;;;;;;3.05;1.73;;;;;;;33.06;26.02;99689.56;5027110;28;20234;-82
2022/07/20 08:38:18;;;;;;;2.90;1.42;;;;;;;33.11;26.79;99692.06;5029393;28;20254;-81
2022/07/20 08:40:45;;;;;;;5.78;1.90;;;;;;;33.14;26.26;99691.31;5027782;28;20233;-81
2022/07/20 08:43:13;;;;;;;1.92;1.40;;;;;;;33.14;26.76;99696.84;5030246;28;20269;-81
2022/07/20 08:45:40;;;;;;;1.98;1.70;;;;;;;33.27;25.70;99691.19;5028701;28;20607;-81
2022/07/20 08:48:10;;;;;;;4.47;2.03;;;;;;;33.21;27.20;99689.88;5024970;28;20233;-82
2022/07/20 08:50:37;;;;;;;3.65;1.92;;;;;;;33.30;27.62;99704.31;5029559;28;20352;-82
2022/07/20 08:53:04;;;;;;;2.58;1.80;;;;;;;33.41;26.15;99699.75;5026682;28;20231;-80
2022/07/20 08:55:31;;;;;;;4.80;1.98;;;;;;;33.50;26.46;99692.75;5028079;28;21878;-81
2022/07/20 08:57:58;;;;;;;3.05;1.88;;;;;;;33.60;26.58;99697.69;5028057;28;20284;-82
2022/07/20 09:00:25;;;;;;;4.55;1.70;;;;;;;33.68;27.10;99690.31;5029019;28;20778;-82
2022/07/20 09:03:02;;;;;;;2.92;1.73;;;;;;;33.71;28.56;99694.31;5026995;28;20664;-81
2022/07/20 09:05:34;;;;;;;4.75;2.20;;;;;;;33.61;29.65;99682.63;5023977;28;20234;-81
2022/07/20 09:08:02;;;;;;;6.20;2.25;;;;;;;33.50;29.85;99687.19;5025441;28;20327;-82
2022/07/20 09:10:34;;;;;;;5.00;2.30;;;;;;;33.61;29.54;99693.75;5027864;28;20280;-81
2022/07/20 09:13:17;;;;;;;3.83;1.90;;;;;;;33.70;29.16;99695.50;5026987;28;20254;-82
2022/07/20 09:15:54;;;;;;;2.83;2.00;;;;;;;33.57;28.99;99703.19;5029060;28;20230;-83
2022/07/20 09:18:26;;;;;;;4.97;2.20;;;;;;;33.52;30.03;99689.63;5013083;28;20269;-81
2022/07/20 09:21:04;;;;;;;6.65;1.85;;;;;;;33.60;28.93;99688.56;5032601;28;20230;-82
2022/07/20 09:23:33;;;;;;;4.93;1.85;;;;;;;33.74;30.19;99690.78;5025410;28;20241;-82
2022/07/20 09:26:01;;;;;;;5.00;2.15;;;;;;;33.66;30.30;99684.28;5036568;28;20226;-82
2022/07/20 09:28:51;;;;;;;3.05;2.20;;;;;;;33.60;30.12;99683.00;5032469;28;20263;-82
2022/07/20 09:31:20;;;;;;;6.72;2.20;;;;;;;33.63;29.96;99685.06;5028667;28;20301;-81
2022/07/20 09:33:52;;;;;;;5.22;2.13;;;;;;;33.46;30.24;99697.44;5026377;28;20245;-81
2022/07/20 09:36:22;;;;;;;5.47;2.00;;;;;;;33.70;30.43;99690.72;5021856;28;20226;-81
2022/07/20 09:38:49;;;;;;;3.60;2.05;;;;;;;33.84;30.14;99682.63;5025419;28;20644;-81
2022/07/20 09:41:31;;;;;;;2.75;2.20;;;;;;;34.02;29.39;99686.47;5034185;28;20225;-81
2022/07/20 09:43:59;;;;;;;2.28;2.03;;;;;;;34.02;29.43;99682.88;5027629;28;20334;-81
2022/07/20 09:46:32;;;;;;;6.22;2.13;;;;;;;34.11;28.99;99682.63;5030757;28;20234;-82
2022/07/20 09:49:06;;;;;;;3.83;2.08;;;;;;;34.16;28.69;99677.53;5036929;28;20735;-81
2022/07/20 09:51:47;;;;;;;4.50;1.80;;;;;;;34.13;28.62;99664.38;5028944;28;20742;-81
2022/07/20 09:54:18;;;;;;;4.38;2.10;;;;;;;34.16;29.01;99671.16;5029578;28;20234;-81
2022/07/20 09:56:47;;;;;;;6.45;2.10;;;;;;;34.17;28.05;99662.50;5013625;28;20313;-82
2022/07/20 09:59:15;;;;;;;2.20;1.80;;;;;;;34.33;28.45;99670.66;5030041;28;20230;-81
2022/07/20 10:01:46;;;;;;;3.58;1.85;;;;;;;34.24;28.04;99653.44;5026373;28;20237;-82
2022/07/20 10:04:14;;;;;;;4.03;1.90;;;;;;;34.51;27.91;99666.13;5038166;28;20210;-81
2022/07/20 10:06:45;;;;;;;4.55;1.75;;;;;;;34.59;26.76;99662.22;5025009;28;20322;-81
2022/07/20 10:09:14;;;;;;;4.35;1.90;;;;;;;34.69;26.45;99652.44;5020127;28;20226;-81
2022/07/20 10:11:41;;;;;;;5.15;1.88;;;;;;;34.76;27.70;99644.19;5030281;28;20241;-81
2022/07/20 10:14:08;;;;;;;3.25;1.63;;;;;;;34.82;24.93;99653.78;5019810;28;20234;-81
2022/07/20 10:16:58;;;;;;;2.35;1.70;;;;;;;35.03;23.21;99648.44;5039146;28;20276;-82
2022/07/20 10:19:41;;;;;;;1.88;1.50;;;;;;;35.13;22.36;99649.72;5021718;28;20277;-82
2022/07/20 10:22:10;;;;;;;3.05;1.70;;;;;;;35.20;21.86;99655.38;5046822;28;20229;-81
2022/07/20 10:24:39;;;;;;;3.13;1.70;;;;;;;35.39;21.60;99649.59;5043967;28;20253;-81
2022/07/20 10:27:05;;;;;;;3.72;1.50;;;;;;;35.41;21.16;99650.00;5048040;28;20229;-82
2022/07/20 10:29:36;;;;;;;3.80;1.52;;;;;;;35.49;20.93;99642.50;5036937;28;20237;-81
2022/07/20 10:32:08;;;;;;;2.25;1.70;;;;;;;35.64;21.18;99633.88;5045354;28;20719;-81
2022/07/20 10:34:40;;;;;;;4.97;1.48;;;;;;;35.66;21.26;99651.03;5032607;28;20284;-81
2022/07/20 10:37:38;;;;;;;4.68;1.70;;;;;;;35.83;20.73;99648.75;5033112;28;20586;-81
2022/07/20 10:40:15;;;;;;;1.92;1.45;;;;;;;35.80;20.87;99647.53;5042439;28;20730;-82
2022/07/20 10:42:42;;;;;;;3.10;1.50;;;;;;;35.93;20.40;99634.88;5034664;28;20727;-81
2022/07/20 10:45:20;;;;;;;2.67;1.55;;;;;;;35.98;20.22;99645.66;5032776;28;20594;-81
2022/07/20 10:47:49;;;;;;;2.13;1.60;;;;;;;36.14;20.57;99632.25;5028688;28;20230;-81
2022/07/20 10:50:32;;;;;;;2.65;1.50;;;;;;;36.05;20.41;99642.13;5023706;28;20242;-81
2022/07/20 10:53:21;;;;;;;2.97;1.55;;;;;;;36.11;20.75;99627.44;5034008;28;20233;-81
2022/07/20 10:55:58;;;;;;;1.65;1.50;;;;;;;36.06;20.38;99632.56;5040074;28;20257;-81
2022/07/20 10:58:31;;;;;;;2.55;1.38;;;;;;;36.04;20.35;99638.53;5043425;28;20234;-81
2022/07/20 11:00:59;;;;;;;3.45;1.73;;;;;;;36.25;19.84;99634.28;5045052;28;20233;-81
2022/07/20 11:03:32;;;;;;;1.85;1.60;;;;;;;36.23;19.34;99631.06;5043010;28;20489;-81
2022/07/20 11:06:25;;;;;;;4.13;1.70;;;;;;;36.29;19.93;99621.16;5042357;28;20269;-81
2022/07/20 11:08:55;;;;;;;4.80;1.77;;;;;;;36.36;18.88;99623.97;5048825;28;20226;-81
2022/07/20 11:11:25;;;;;;;2.13;1.42;;;;;;;36.41;19.70;99624.38;5083020;28;20229;-81
2022/07/20 11:13:52;;;;;;;3.10;1.60;;;;;;;36.42;19.81;99614.03;5060047;28;20771;-81
2022/07/20 11:16:21;;;;;;;3.47;1.73;;;;;;;36.43;19.91;99612.84;5058889;28;20225;-81
2022/07/20 11:18:49;;;;;;;3.38;1.60;;;;;;;36.41;19.88;99607.66;5054186;28;20723;-80
2022/07/20 11:21:17;;;;;;;2.30;1.70;;;;;;;36.58;19.99;99600.53;5043816;28;20238;-81
2022/07/20 11:23:45;;;;;;;2.28;1.70;;;;;;;36.52;19.85;99602.91;5074210;28;20295;-82
2022/07/20 11:26:13;;;;;;;1.92;1.63;;;;;;;36.54;20.07;99597.72;5043571;28;20234;-82
2022/07/20 11:28:54;;;;;;;1.90;1.80;;;;;;;36.55;19.72;99604.09;5025017;28;20223;-82
2022/07/20 11:31:23;;;;;;;2.53;1.60;;;;;;;36.62;19.42;99595.78;5046534;28;20233;-81
2022/07/20 11:33:52;;;;;;;2.88;1.70;;;;;;;36.59;19.94;99596.53;5043057;28;20222;-81
2022/07/20 11:36:22;;;;;;;3.53;1.65;;;;;;;36.74;19.63;99589.03;5046821;28;20220;-82
2022/07/20 11:38:50;;;;;;;3.28;1.50;;;;;;;36.78;19.83;99592.63;5038420;28;20397;-81